Portada
METAR-TAF:

METAR-TAF

Aeroports :

Guaymas, Mèxic

latitud: 27-58N, longitud: 110-56W, altitud: 27 m

Observació

L'informe es va fer fa 6 hores i 29 minuts, a les 01:40 UTC
Vent 9 kt del Oest
Temperatura 33°C
Humitat 71%
Pressió 1008 hPa
Visibilitat: 16.1 km
Cel clar

METAR: MMGM 190140Z 27009KT 10SM SKC 33/27 A2976

Hora: 01:09 (08:09 UTC)

Pronòstic

L'informe es va fer fa 4 hores i 1 minuts, a les 04:08 UTC
Pronòstic vàlid del 19 a les 06 UTC al 20 a les 06 UTC
Vent 5 kt del Oest
Visibilitat: 10 km
Cel clar
A partir de les 19 a les 1900 UTC
Vent 15 kt del Oest
Visibilitat: 10 km
Núvols disperses a una alçada de 3000 ft
A partir de les 20 a les 0200 UTC
Vent 8 kt del Oest/Sud-Oest
Visibilitat: 10 km
Núvols disperses a una alçada de 3000 ft
Núvols disperses a una alçada de 25000 ft

TAF: MMGM 190408Z 1906/2006 26005KT P6SM SKC FM191900 26015KT P6SM SCT030 FM200200 24008KT P6SM SCT030 SCT250

Observacions i pronòstics meteorològics de més de 4000 aeroports (METAR i TAF).

Les estacions disponibles són els punts grocs i vermells al mapa.

Posi el ratolí al punt desitjat per veure el nom de l'estació.

Feu clic per veure les observacions i els pronòstics meteorològics.

Per canviar el mapa: feu clic els botons verds amb una creu de color negre per apropar; al botó verd amb un guió per allunyar la imatge; o en les fletxes verdes per a mapes adjacents.


METAR-TAF: